sensor_id;sensor_type;location;lat;lon;timestamp;temperature;humidity
17851;DHT22;9051;51.548;14.348;2023-03-23T00:02:12;12.30;99.90
17851;DHT22;9051;51.548;14.348;2023-03-23T00:04:44;12.30;99.90
17851;DHT22;9051;51.548;14.348;2023-03-23T00:07:19;12.20;99.90
17851;DHT22;9051;51.548;14.348;2023-03-23T00:09:52;12.20;99.90
17851;DHT22;9051;51.548;14.348;2023-03-23T00:12:26;12.30;99.90
17851;DHT22;9051;51.548;14.348;2023-03-23T00:15:05;12.30;99.90
17851;DHT22;9051;51.548;14.348;2023-03-23T00:17:40;12.20;99.90
17851;DHT22;9051;51.548;14.348;2023-03-23T00:20:11;12.30;99.90
17851;DHT22;9051;51.548;14.348;2023-03-23T00:22:43;12.20;99.90
17851;DHT22;9051;51.548;14.348;2023-03-23T00:25:15;12.30;99.90
17851;DHT22;9051;51.548;14.348;2023-03-23T00:27:48;12.20;99.90
17851;DHT22;9051;51.548;14.348;2023-03-23T00:30:20;12.30;99.90
17851;DHT22;9051;51.548;14.348;2023-03-23T00:32:54;12.30;99.90
17851;DHT22;9051;51.548;14.348;2023-03-23T00:35:25;12.30;99.90
17851;DHT22;9051;51.548;14.348;2023-03-23T00:37:58;12.30;99.90
17851;DHT22;9051;51.548;14.348;2023-03-23T00:40:31;12.30;99.90
17851;DHT22;9051;51.548;14.348;2023-03-23T00:43:06;12.30;99.90
17851;DHT22;9051;51.548;14.348;2023-03-23T00:45:38;12.30;99.90
17851;DHT22;9051;51.548;14.348;2023-03-23T00:48:12;12.30;99.90
17851;DHT22;9051;51.548;14.348;2023-03-23T00:50:44;12.40;99.90
17851;DHT22;9051;51.548;14.348;2023-03-23T00:53:16;12.40;99.90
17851;DHT22;9051;51.548;14.348;2023-03-23T00:55:49;12.30;99.90
17851;DHT22;9051;51.548;14.348;2023-03-23T00:58:21;12.30;99.90
17851;DHT22;9051;51.548;14.348;2023-03-23T01:00:53;12.40;99.90
17851;DHT22;9051;51.548;14.348;2023-03-23T01:03:28;12.30;99.90
17851;DHT22;9051;51.548;14.348;2023-03-23T01:06:05;12.30;99.90
17851;DHT22;9051;51.548;14.348;2023-03-23T01:08:39;12.30;99.90
17851;DHT22;9051;51.548;14.348;2023-03-23T01:11:16;12.30;99.90
17851;DHT22;9051;51.548;14.348;2023-03-23T01:13:48;12.40;99.90
17851;DHT22;9051;51.548;14.348;2023-03-23T01:16:20;12.40;99.90
17851;DHT22;9051;51.548;14.348;2023-03-23T01:18:53;12.30;99.90
17851;DHT22;9051;51.548;14.348;2023-03-23T01:21:26;12.30;99.90
17851;DHT22;9051;51.548;14.348;2023-03-23T01:23:58;12.30;99.90
17851;DHT22;9051;51.548;14.348;2023-03-23T01:26:30;12.30;99.90
17851;DHT22;9051;51.548;14.348;2023-03-23T01:29:02;12.30;99.90
17851;DHT22;9051;51.548;14.348;2023-03-23T01:31:34;12.20;99.90
17851;DHT22;9051;51.548;14.348;2023-03-23T01:34:09;12.20;99.90
17851;DHT22;9051;51.548;14.348;2023-03-23T01:36:43;12.20;99.90
17851;DHT22;9051;51.548;14.348;2023-03-23T01:39:15;12.20;99.90
17851;DHT22;9051;51.548;14.348;2023-03-23T01:41:47;12.20;99.90
17851;DHT22;9051;51.548;14.348;2023-03-23T01:47:48;12.20;99.90
17851;DHT22;9051;51.548;14.348;2023-03-23T01:50:24;12.20;99.90
17851;DHT22;9051;51.548;14.348;2023-03-23T01:52:58;12.20;99.90
17851;DHT22;9051;51.548;14.348;2023-03-23T01:55:30;12.20;99.90
17851;DHT22;9051;51.548;14.348;2023-03-23T01:58:02;12.20;99.90
17851;DHT22;9051;51.548;14.348;2023-03-23T02:00:35;12.20;99.90
17851;DHT22;9051;51.548;14.348;2023-03-23T02:03:08;12.10;99.90
17851;DHT22;9051;51.548;14.348;2023-03-23T02:05:44;12.10;99.90
17851;DHT22;9051;51.548;14.348;2023-03-23T02:08:40;12.10;99.90
17851;DHT22;9051;51.548;14.348;2023-03-23T02:11:15;12.10;99.90
17851;DHT22;9051;51.548;14.348;2023-03-23T02:13:48;12.10;99.90
17851;DHT22;9051;51.548;14.348;2023-03-23T02:16:27;12.10;99.90
17851;DHT22;9051;51.548;14.348;2023-03-23T02:19:22;12.10;99.90
17851;DHT22;9051;51.548;14.348;2023-03-23T02:22:27;12.10;99.90
17851;DHT22;9051;51.548;14.348;2023-03-23T02:25:30;12.10;99.90
17851;DHT22;9051;51.548;14.348;2023-03-23T02:28:31;12.10;99.90
17851;DHT22;9051;51.548;14.348;2023-03-23T02:31:33;12.10;99.90
17851;DHT22;9051;51.548;14.348;2023-03-23T02:34:16;12.10;99.90
17851;DHT22;9051;51.548;14.348;2023-03-23T02:36:58;12.10;99.90
17851;DHT22;9051;51.548;14.348;2023-03-23T02:39:34;12.10;99.90
17851;DHT22;9051;51.548;14.348;2023-03-23T02:42:10;12.10;99.90
17851;DHT22;9051;51.548;14.348;2023-03-23T02:44:45;12.10;99.90
17851;DHT22;9051;51.548;14.348;2023-03-23T02:47:21;12.10;99.90
17851;DHT22;9051;51.548;14.348;2023-03-23T02:49:57;12.10;99.90
17851;DHT22;9051;51.548;14.348;2023-03-23T02:52:31;12.10;99.90
17851;DHT22;9051;51.548;14.348;2023-03-23T02:55:05;12.10;99.90
17851;DHT22;9051;51.548;14.348;2023-03-23T02:57:38;12.00;99.90
17851;DHT22;9051;51.548;14.348;2023-03-23T03:00:13;12.00;99.90
17851;DHT22;9051;51.548;14.348;2023-03-23T03:02:47;11.90;99.90
17851;DHT22;9051;51.548;14.348;2023-03-23T03:05:34;11.80;99.90
17851;DHT22;9051;51.548;14.348;2023-03-23T03:08:13;11.70;99.90
17851;DHT22;9051;51.548;14.348;2023-03-23T03:10:53;11.70;99.90
17851;DHT22;9051;51.548;14.348;2023-03-23T03:13:32;11.60;99.90
17851;DHT22;9051;51.548;14.348;2023-03-23T03:16:15;11.60;99.90
17851;DHT22;9051;51.548;14.348;2023-03-23T03:18:54;11.60;99.90
17851;DHT22;9051;51.548;14.348;2023-03-23T03:21:31;11.60;99.90
17851;DHT22;9051;51.548;14.348;2023-03-23T03:24:06;11.60;99.90
17851;DHT22;9051;51.548;14.348;2023-03-23T03:26:45;11.50;99.90
17851;DHT22;9051;51.548;14.348;2023-03-23T03:29:32;11.50;99.90
17851;DHT22;9051;51.548;14.348;2023-03-23T03:32:09;11.40;99.90
17851;DHT22;9051;51.548;14.348;2023-03-23T03:34:42;11.40;99.90
17851;DHT22;9051;51.548;14.348;2023-03-23T03:37:17;11.30;99.90
17851;DHT22;9051;51.548;14.348;2023-03-23T03:39:52;11.40;99.90
17851;DHT22;9051;51.548;14.348;2023-03-23T03:42:24;11.40;99.90
17851;DHT22;9051;51.548;14.348;2023-03-23T03:44:57;11.40;99.90
17851;DHT22;9051;51.548;14.348;2023-03-23T03:47:29;11.40;99.90
17851;DHT22;9051;51.548;14.348;2023-03-23T03:50:01;11.40;99.90
17851;DHT22;9051;51.548;14.348;2023-03-23T03:52:36;11.40;99.90
17851;DHT22;9051;51.548;14.348;2023-03-23T03:55:10;11.40;99.90
17851;DHT22;9051;51.548;14.348;2023-03-23T03:57:45;11.50;99.90
17851;DHT22;9051;51.548;14.348;2023-03-23T04:00:43;11.50;99.90
17851;DHT22;9051;51.548;14.348;2023-03-23T04:03:22;11.50;99.90
17851;DHT22;9051;51.548;14.348;2023-03-23T04:06:09;11.50;99.90
17851;DHT22;9051;51.548;14.348;2023-03-23T04:08:44;11.60;99.90
17851;DHT22;9051;51.548;14.348;2023-03-23T04:11:16;11.60;99.90
17851;DHT22;9051;51.548;14.348;2023-03-23T04:13:48;11.50;99.90
17851;DHT22;9051;51.548;14.348;2023-03-23T04:16:29;11.50;99.90
17851;DHT22;9051;51.548;14.348;2023-03-23T04:19:02;11.50;99.90
17851;DHT22;9051;51.548;14.348;2023-03-23T04:21:34;11.50;99.90
17851;DHT22;9051;51.548;14.348;2023-03-23T04:24:17;11.40;99.90
17851;DHT22;9051;51.548;14.348;2023-03-23T04:26:55;11.40;99.90
17851;DHT22;9051;51.548;14.348;2023-03-23T04:29:31;11.50;99.90
17851;DHT22;9051;51.548;14.348;2023-03-23T04:32:27;11.50;99.90
17851;DHT22;9051;51.548;14.348;2023-03-23T04:35:01;11.40;99.90
17851;DHT22;9051;51.548;14.348;2023-03-23T04:37:42;11.50;99.90
17851;DHT22;9051;51.548;14.348;2023-03-23T04:40:20;11.40;99.90
17851;DHT22;9051;51.548;14.348;2023-03-23T04:43:04;11.40;99.90
17851;DHT22;9051;51.548;14.348;2023-03-23T04:45:57;11.40;99.90
17851;DHT22;9051;51.548;14.348;2023-03-23T04:48:32;11.40;99.90
17851;DHT22;9051;51.548;14.348;2023-03-23T04:51:13;11.40;99.90
17851;DHT22;9051;51.548;14.348;2023-03-23T04:53:47;11.40;99.90
17851;DHT22;9051;51.548;14.348;2023-03-23T04:56:20;11.40;99.90
17851;DHT22;9051;51.548;14.348;2023-03-23T04:58:52;11.40;99.90
17851;DHT22;9051;51.548;14.348;2023-03-23T05:01:35;11.50;99.90
17851;DHT22;9051;51.548;14.348;2023-03-23T05:04:19;11.50;99.90
17851;DHT22;9051;51.548;14.348;2023-03-23T05:07:05;11.50;99.90
17851;DHT22;9051;51.548;14.348;2023-03-23T05:09:40;11.60;99.90
17851;DHT22;9051;51.548;14.348;2023-03-23T05:12:14;11.60;99.90
17851;DHT22;9051;51.548;14.348;2023-03-23T05:14:56;11.70;99.90
17851;DHT22;9051;51.548;14.348;2023-03-23T05:17:30;11.70;99.90
17851;DHT22;9051;51.548;14.348;2023-03-23T05:20:06;11.80;99.90
17851;DHT22;9051;51.548;14.348;2023-03-23T05:22:49;11.80;99.90
17851;DHT22;9051;51.548;14.348;2023-03-23T05:25:27;11.90;99.90
17851;DHT22;9051;51.548;14.348;2023-03-23T05:28:06;11.90;99.90
17851;DHT22;9051;51.548;14.348;2023-03-23T05:31:00;11.90;99.90
17851;DHT22;9051;51.548;14.348;2023-03-23T05:33:36;12.00;99.90
17851;DHT22;9051;51.548;14.348;2023-03-23T05:36:13;12.00;99.90
17851;DHT22;9051;51.548;14.348;2023-03-23T05:39:06;12.00;99.90
17851;DHT22;9051;51.548;14.348;2023-03-23T05:41:59;12.10;99.90
17851;DHT22;9051;51.548;14.348;2023-03-23T05:44:43;12.10;99.90
17851;DHT22;9051;51.548;14.348;2023-03-23T05:47:16;12.20;99.90
17851;DHT22;9051;51.548;14.348;2023-03-23T05:49:55;12.20;99.90
17851;DHT22;9051;51.548;14.348;2023-03-23T05:52:29;12.20;99.90
17851;DHT22;9051;51.548;14.348;2023-03-23T05:55:05;12.20;99.90
17851;DHT22;9051;51.548;14.348;2023-03-23T05:57:39;12.30;99.90
17851;DHT22;9051;51.548;14.348;2023-03-23T06:00:23;12.30;99.90
17851;DHT22;9051;51.548;14.348;2023-03-23T06:03:04;12.30;99.90
17851;DHT22;9051;51.548;14.348;2023-03-23T06:05:44;12.30;99.90
17851;DHT22;9051;51.548;14.348;2023-03-23T06:08:20;12.40;99.90
17851;DHT22;9051;51.548;14.348;2023-03-23T06:10:53;12.40;99.90
17851;DHT22;9051;51.548;14.348;2023-03-23T06:13:25;12.40;99.90
17851;DHT22;9051;51.548;14.348;2023-03-23T06:16:07;12.40;99.90
17851;DHT22;9051;51.548;14.348;2023-03-23T06:18:56;12.40;99.90
17851;DHT22;9051;51.548;14.348;2023-03-23T06:21:34;12.50;99.90
17851;DHT22;9051;51.548;14.348;2023-03-23T06:24:17;12.50;99.90
17851;DHT22;9051;51.548;14.348;2023-03-23T06:26:49;12.50;99.90
17851;DHT22;9051;51.548;14.348;2023-03-23T06:29:25;12.50;99.90
17851;DHT22;9051;51.548;14.348;2023-03-23T06:32:02;12.60;99.90
17851;DHT22;9051;51.548;14.348;2023-03-23T06:34:36;12.60;99.90
17851;DHT22;9051;51.548;14.348;2023-03-23T06:37:11;12.70;99.90
17851;DHT22;9051;51.548;14.348;2023-03-23T06:39:56;12.70;99.90
17851;DHT22;9051;51.548;14.348;2023-03-23T06:42:34;12.80;99.90
17851;DHT22;9051;51.548;14.348;2023-03-23T06:45:25;12.80;99.90
17851;DHT22;9051;51.548;14.348;2023-03-23T06:48:16;12.80;99.90
17851;DHT22;9051;51.548;14.348;2023-03-23T06:50:48;12.90;99.90
17851;DHT22;9051;51.548;14.348;2023-03-23T06:53:23;12.90;99.90
17851;DHT22;9051;51.548;14.348;2023-03-23T06:55:57;13.00;99.90
17851;DHT22;9051;51.548;14.348;2023-03-23T06:58:29;13.00;99.90
17851;DHT22;9051;51.548;14.348;2023-03-23T07:01:01;13.10;99.90
17851;DHT22;9051;51.548;14.348;2023-03-23T07:03:39;13.10;99.90
17851;DHT22;9051;51.548;14.348;2023-03-23T07:06:14;13.20;99.90
17851;DHT22;9051;51.548;14.348;2023-03-23T07:08:52;13.30;99.90
17851;DHT22;9051;51.548;14.348;2023-03-23T07:11:28;13.40;99.90
17851;DHT22;9051;51.548;14.348;2023-03-23T07:14:05;13.40;99.90
17851;DHT22;9051;51.548;14.348;2023-03-23T07:16:37;13.50;99.90
17851;DHT22;9051;51.548;14.348;2023-03-23T07:19:11;13.50;99.90
17851;DHT22;9051;51.548;14.348;2023-03-23T07:21:43;13.50;99.90
17851;DHT22;9051;51.548;14.348;2023-03-23T07:24:15;13.50;99.90
17851;DHT22;9051;51.548;14.348;2023-03-23T07:27:27;13.50;99.90
17851;DHT22;9051;51.548;14.348;2023-03-23T07:30:03;13.50;99.90
17851;DHT22;9051;51.548;14.348;2023-03-23T07:32:36;13.60;99.90
17851;DHT22;9051;51.548;14.348;2023-03-23T07:35:10;13.60;99.90
17851;DHT22;9051;51.548;14.348;2023-03-23T07:37:58;13.60;99.90
17851;DHT22;9051;51.548;14.348;2023-03-23T07:40:31;13.80;99.90
17851;DHT22;9051;51.548;14.348;2023-03-23T07:43:08;13.90;99.90
17851;DHT22;9051;51.548;14.348;2023-03-23T07:45:58;14.00;99.90
17851;DHT22;9051;51.548;14.348;2023-03-23T07:48:40;14.10;99.90
17851;DHT22;9051;51.548;14.348;2023-03-23T07:51:14;14.20;99.90
17851;DHT22;9051;51.548;14.348;2023-03-23T07:53:50;14.30;99.90
17851;DHT22;9051;51.548;14.348;2023-03-23T07:56:42;14.40;99.90
17851;DHT22;9051;51.548;14.348;2023-03-23T07:59:41;14.60;99.90
17851;DHT22;9051;51.548;14.348;2023-03-23T08:02:14;14.80;99.90
17851;DHT22;9051;51.548;14.348;2023-03-23T08:04:58;14.80;99.90
17851;DHT22;9051;51.548;14.348;2023-03-23T08:07:50;15.00;99.90
17851;DHT22;9051;51.548;14.348;2023-03-23T08:10:36;15.00;99.90
17851;DHT22;9051;51.548;14.348;2023-03-23T08:13:22;15.00;99.90
17851;DHT22;9051;51.548;14.348;2023-03-23T08:16:13;15.10;99.90
17851;DHT22;9051;51.548;14.348;2023-03-23T08:19:06;14.90;99.90
17851;DHT22;9051;51.548;14.348;2023-03-23T08:21:52;14.90;99.90
17851;DHT22;9051;51.548;14.348;2023-03-23T08:24:32;14.80;99.90
17851;DHT22;9051;51.548;14.348;2023-03-23T08:27:19;14.90;99.90
17851;DHT22;9051;51.548;14.348;2023-03-23T08:30:12;14.90;99.90
17851;DHT22;9051;51.548;14.348;2023-03-23T08:33:08;15.00;99.90
17851;DHT22;9051;51.548;14.348;2023-03-23T08:36:13;14.90;99.90
17851;DHT22;9051;51.548;14.348;2023-03-23T08:39:17;14.90;99.90
17851;DHT22;9051;51.548;14.348;2023-03-23T08:42:09;14.80;99.90
17851;DHT22;9051;51.548;14.348;2023-03-23T08:44:59;14.70;99.90
17851;DHT22;9051;51.548;14.348;2023-03-23T08:47:49;14.60;99.90
17851;DHT22;9051;51.548;14.348;2023-03-23T08:50:41;14.60;99.90
17851;DHT22;9051;51.548;14.348;2023-03-23T08:53:16;14.60;99.90
17851;DHT22;9051;51.548;14.348;2023-03-23T08:55:48;14.60;99.90
17851;DHT22;9051;51.548;14.348;2023-03-23T08:58:22;14.50;99.90
17851;DHT22;9051;51.548;14.348;2023-03-23T09:01:13;14.60;99.90
17851;DHT22;9051;51.548;14.348;2023-03-23T09:03:47;14.60;99.90
17851;DHT22;9051;51.548;14.348;2023-03-23T09:06:50;14.50;99.90
17851;DHT22;9051;51.548;14.348;2023-03-23T09:09:22;14.40;99.90
17851;DHT22;9051;51.548;14.348;2023-03-23T09:11:54;14.30;99.90
17851;DHT22;9051;51.548;14.348;2023-03-23T09:14:27;14.20;99.90
17851;DHT22;9051;51.548;14.348;2023-03-23T09:16:59;14.10;99.90
17851;DHT22;9051;51.548;14.348;2023-03-23T09:19:32;14.10;99.90
17851;DHT22;9051;51.548;14.348;2023-03-23T09:22:05;14.00;99.90
17851;DHT22;9051;51.548;14.348;2023-03-23T09:24:37;13.90;99.90
17851;DHT22;9051;51.548;14.348;2023-03-23T09:27:09;13.90;99.90
17851;DHT22;9051;51.548;14.348;2023-03-23T09:29:42;13.80;99.90
17851;DHT22;9051;51.548;14.348;2023-03-23T09:32:15;13.80;99.90
17851;DHT22;9051;51.548;14.348;2023-03-23T09:34:47;13.80;99.90
17851;DHT22;9051;51.548;14.348;2023-03-23T09:37:19;13.80;99.90
17851;DHT22;9051;51.548;14.348;2023-03-23T09:39:50;13.70;99.90
17851;DHT22;9051;51.548;14.348;2023-03-23T09:42:36;13.70;99.90
17851;DHT22;9051;51.548;14.348;2023-03-23T09:45:19;13.70;99.90
17851;DHT22;9051;51.548;14.348;2023-03-23T09:48:07;13.70;99.90
17851;DHT22;9051;51.548;14.348;2023-03-23T09:50:46;13.80;99.90
17851;DHT22;9051;51.548;14.348;2023-03-23T09:53:23;13.90;99.90
17851;DHT22;9051;51.548;14.348;2023-03-23T09:55:56;13.90;99.90
17851;DHT22;9051;51.548;14.348;2023-03-23T09:58:32;13.90;99.90
17851;DHT22;9051;51.548;14.348;2023-03-23T10:01:12;14.00;99.90
17851;DHT22;9051;51.548;14.348;2023-03-23T10:03:46;14.00;99.90
17851;DHT22;9051;51.548;14.348;2023-03-23T10:06:19;14.10;99.90
17851;DHT22;9051;51.548;14.348;2023-03-23T10:08:52;14.10;99.90
17851;DHT22;9051;51.548;14.348;2023-03-23T10:11:39;14.10;99.90
17851;DHT22;9051;51.548;14.348;2023-03-23T10:14:23;14.10;99.90
17851;DHT22;9051;51.548;14.348;2023-03-23T10:17:05;14.10;99.90
17851;DHT22;9051;51.548;14.348;2023-03-23T10:19:46;14.20;99.90
17851;DHT22;9051;51.548;14.348;2023-03-23T10:22:21;14.20;99.90
17851;DHT22;9051;51.548;14.348;2023-03-23T10:24:59;14.20;99.90
17851;DHT22;9051;51.548;14.348;2023-03-23T10:27:38;14.20;99.90
17851;DHT22;9051;51.548;14.348;2023-03-23T10:30:19;14.20;99.90
17851;DHT22;9051;51.548;14.348;2023-03-23T10:32:56;14.30;99.90
17851;DHT22;9051;51.548;14.348;2023-03-23T10:35:33;14.30;99.90
17851;DHT22;9051;51.548;14.348;2023-03-23T10:38:11;14.30;99.90
17851;DHT22;9051;51.548;14.348;2023-03-23T10:40:49;14.30;99.90
17851;DHT22;9051;51.548;14.348;2023-03-23T10:43:23;14.30;99.90
17851;DHT22;9051;51.548;14.348;2023-03-23T10:46:00;14.40;99.90
17851;DHT22;9051;51.548;14.348;2023-03-23T10:48:37;14.40;99.90
17851;DHT22;9051;51.548;14.348;2023-03-23T10:51:11;14.50;99.90
17851;DHT22;9051;51.548;14.348;2023-03-23T10:53:49;14.50;99.90
17851;DHT22;9051;51.548;14.348;2023-03-23T10:56:23;14.50;99.90
17851;DHT22;9051;51.548;14.348;2023-03-23T10:58:56;14.70;99.90
17851;DHT22;9051;51.548;14.348;2023-03-23T11:01:30;14.70;99.90
17851;DHT22;9051;51.548;14.348;2023-03-23T11:04:11;14.80;99.90
17851;DHT22;9051;51.548;14.348;2023-03-23T11:06:45;15.00;99.90
17851;DHT22;9051;51.548;14.348;2023-03-23T11:09:20;15.10;99.90
17851;DHT22;9051;51.548;14.348;2023-03-23T11:11:54;15.20;99.90
17851;DHT22;9051;51.548;14.348;2023-03-23T11:14:29;15.30;99.90
17851;DHT22;9051;51.548;14.348;2023-03-23T11:17:02;15.40;99.90
17851;DHT22;9051;51.548;14.348;2023-03-23T11:19:37;15.50;99.90
17851;DHT22;9051;51.548;14.348;2023-03-23T11:22:17;15.60;99.90
17851;DHT22;9051;51.548;14.348;2023-03-23T11:24:53;15.60;99.90
17851;DHT22;9051;51.548;14.348;2023-03-23T11:27:27;15.60;99.90
17851;DHT22;9051;51.548;14.348;2023-03-23T11:30:07;15.50;99.90
17851;DHT22;9051;51.548;14.348;2023-03-23T11:32:43;15.50;99.90
17851;DHT22;9051;51.548;14.348;2023-03-23T11:35:20;15.60;99.90
17851;DHT22;9051;51.548;14.348;2023-03-23T11:37:54;15.60;99.90
17851;DHT22;9051;51.548;14.348;2023-03-23T11:40:27;15.50;99.90
17851;DHT22;9051;51.548;14.348;2023-03-23T11:43:13;15.50;99.90
17851;DHT22;9051;51.548;14.348;2023-03-23T11:45:48;15.50;99.90
17851;DHT22;9051;51.548;14.348;2023-03-23T11:48:28;15.50;99.90
17851;DHT22;9051;51.548;14.348;2023-03-23T11:51:06;15.50;99.90
17851;DHT22;9051;51.548;14.348;2023-03-23T11:53:45;15.50;99.90
17851;DHT22;9051;51.548;14.348;2023-03-23T11:56:24;15.50;99.90
17851;DHT22;9051;51.548;14.348;2023-03-23T11:58:58;15.60;99.90
17851;DHT22;9051;51.548;14.348;2023-03-23T12:01:41;15.60;99.90
17851;DHT22;9051;51.548;14.348;2023-03-23T12:04:25;15.60;99.90
17851;DHT22;9051;51.548;14.348;2023-03-23T12:07:14;15.60;99.90
17851;DHT22;9051;51.548;14.348;2023-03-23T12:09:55;15.60;99.90
17851;DHT22;9051;51.548;14.348;2023-03-23T12:12:33;15.70;99.90
17851;DHT22;9051;51.548;14.348;2023-03-23T12:15:16;15.70;99.90
17851;DHT22;9051;51.548;14.348;2023-03-23T12:17:56;15.70;99.90
17851;DHT22;9051;51.548;14.348;2023-03-23T12:20:37;15.60;99.90
17851;DHT22;9051;51.548;14.348;2023-03-23T12:23:23;15.60;99.90
17851;DHT22;9051;51.548;14.348;2023-03-23T12:26:20;15.70;99.90
17851;DHT22;9051;51.548;14.348;2023-03-23T12:29:25;15.70;99.90
17851;DHT22;9051;51.548;14.348;2023-03-23T12:32:13;15.60;99.90
17851;DHT22;9051;51.548;14.348;2023-03-23T12:34:53;15.70;99.90
17851;DHT22;9051;51.548;14.348;2023-03-23T12:37:38;15.80;99.90
17851;DHT22;9051;51.548;14.348;2023-03-23T12:40:24;15.80;99.90
17851;DHT22;9051;51.548;14.348;2023-03-23T12:43:04;15.80;99.90
17851;DHT22;9051;51.548;14.348;2023-03-23T12:45:53;15.80;99.90
17851;DHT22;9051;51.548;14.348;2023-03-23T12:48:28;15.80;99.90
17851;DHT22;9051;51.548;14.348;2023-03-23T12:51:09;15.90;99.90
17851;DHT22;9051;51.548;14.348;2023-03-23T12:53:49;15.90;99.90
17851;DHT22;9051;51.548;14.348;2023-03-23T12:56:29;15.80;99.90
17851;DHT22;9051;51.548;14.348;2023-03-23T12:59:11;15.80;99.90
17851;DHT22;9051;51.548;14.348;2023-03-23T13:01:46;15.80;99.90
17851;DHT22;9051;51.548;14.348;2023-03-23T13:04:21;15.90;99.90
17851;DHT22;9051;51.548;14.348;2023-03-23T13:06:54;15.90;99.90
17851;DHT22;9051;51.548;14.348;2023-03-23T13:09:29;15.90;99.90
17851;DHT22;9051;51.548;14.348;2023-03-23T13:12:08;15.90;99.90
17851;DHT22;9051;51.548;14.348;2023-03-23T13:14:45;15.90;99.90
17851;DHT22;9051;51.548;14.348;2023-03-23T13:17:28;15.90;99.90
17851;DHT22;9051;51.548;14.348;2023-03-23T13:20:23;16.00;99.90
17851;DHT22;9051;51.548;14.348;2023-03-23T13:23:04;15.90;99.90
17851;DHT22;9051;51.548;14.348;2023-03-23T13:25:49;15.90;99.90
17851;DHT22;9051;51.548;14.348;2023-03-23T13:28:26;16.00;99.90
17851;DHT22;9051;51.548;14.348;2023-03-23T13:31:01;15.90;99.90
17851;DHT22;9051;51.548;14.348;2023-03-23T13:33:35;15.90;99.90
17851;DHT22;9051;51.548;14.348;2023-03-23T13:36:12;16.00;99.90
17851;DHT22;9051;51.548;14.348;2023-03-23T13:38:47;16.00;99.90
17851;DHT22;9051;51.548;14.348;2023-03-23T13:41:20;16.00;99.90
17851;DHT22;9051;51.548;14.348;2023-03-23T13:44:05;16.10;99.90
17851;DHT22;9051;51.548;14.348;2023-03-23T13:46:37;16.10;99.90
17851;DHT22;9051;51.548;14.348;2023-03-23T13:49:19;16.00;99.90
17851;DHT22;9051;51.548;14.348;2023-03-23T13:52:14;16.00;99.90
17851;DHT22;9051;51.548;14.348;2023-03-23T13:54:50;16.00;99.90
17851;DHT22;9051;51.548;14.348;2023-03-23T13:57:34;16.00;99.90
17851;DHT22;9051;51.548;14.348;2023-03-23T14:00:36;16.00;99.90
17851;DHT22;9051;51.548;14.348;2023-03-23T14:03:14;16.20;99.90
17851;DHT22;9051;51.548;14.348;2023-03-23T14:05:49;16.40;99.90
17851;DHT22;9051;51.548;14.348;2023-03-23T14:08:24;16.50;99.90
17851;DHT22;9051;51.548;14.348;2023-03-23T14:10:58;16.70;99.90
17851;DHT22;9051;51.548;14.348;2023-03-23T14:13:37;16.80;99.90
17851;DHT22;9051;51.548;14.348;2023-03-23T14:16:18;16.80;99.90
17851;DHT22;9051;51.548;14.348;2023-03-23T14:18:54;16.80;99.90
17851;DHT22;9051;51.548;14.348;2023-03-23T14:21:32;16.90;99.90
17851;DHT22;9051;51.548;14.348;2023-03-23T14:24:09;16.90;99.90
17851;DHT22;9051;51.548;14.348;2023-03-23T14:26:41;17.10;99.90
17851;DHT22;9051;51.548;14.348;2023-03-23T14:29:13;17.10;99.90
17851;DHT22;9051;51.548;14.348;2023-03-23T14:31:50;17.00;99.90
17851;DHT22;9051;51.548;14.348;2023-03-23T14:34:25;16.90;99.90
17851;DHT22;9051;51.548;14.348;2023-03-23T14:36:58;16.80;99.90
17851;DHT22;9051;51.548;14.348;2023-03-23T14:39:32;16.80;99.90
17851;DHT22;9051;51.548;14.348;2023-03-23T14:42:09;16.90;99.90
17851;DHT22;9051;51.548;14.348;2023-03-23T14:44:44;16.80;99.90
17851;DHT22;9051;51.548;14.348;2023-03-23T14:47:20;16.80;99.90
17851;DHT22;9051;51.548;14.348;2023-03-23T14:49:54;16.70;99.90
17851;DHT22;9051;51.548;14.348;2023-03-23T14:52:28;16.70;99.90
17851;DHT22;9051;51.548;14.348;2023-03-23T14:55:12;16.60;99.90
17851;DHT22;9051;51.548;14.348;2023-03-23T14:57:44;16.50;99.90
17851;DHT22;9051;51.548;14.348;2023-03-23T15:00:19;16.40;99.90
17851;DHT22;9051;51.548;14.348;2023-03-23T15:02:55;16.30;99.90
17851;DHT22;9051;51.548;14.348;2023-03-23T15:05:30;16.20;99.90
17851;DHT22;9051;51.548;14.348;2023-03-23T15:08:05;16.30;99.90
17851;DHT22;9051;51.548;14.348;2023-03-23T15:10:39;16.20;99.90
17851;DHT22;9051;51.548;14.348;2023-03-23T15:13:12;16.20;99.90
17851;DHT22;9051;51.548;14.348;2023-03-23T15:15:48;16.10;99.90
17851;DHT22;9051;51.548;14.348;2023-03-23T15:18:30;16.10;99.90
17851;DHT22;9051;51.548;14.348;2023-03-23T15:21:11;16.00;99.90
17851;DHT22;9051;51.548;14.348;2023-03-23T15:23:43;16.00;99.90
17851;DHT22;9051;51.548;14.348;2023-03-23T15:26:30;15.90;99.90
17851;DHT22;9051;51.548;14.348;2023-03-23T15:29:11;15.90;99.90
17851;DHT22;9051;51.548;14.348;2023-03-23T15:31:45;15.80;99.90
17851;DHT22;9051;51.548;14.348;2023-03-23T15:34:27;15.80;99.90
17851;DHT22;9051;51.548;14.348;2023-03-23T15:37:02;15.70;99.90
17851;DHT22;9051;51.548;14.348;2023-03-23T15:39:40;15.80;99.90
17851;DHT22;9051;51.548;14.348;2023-03-23T15:42:21;15.80;99.90
17851;DHT22;9051;51.548;14.348;2023-03-23T15:45:03;15.80;99.90
17851;DHT22;9051;51.548;14.348;2023-03-23T15:47:43;15.80;99.90
17851;DHT22;9051;51.548;14.348;2023-03-23T15:50:19;15.80;99.90
17851;DHT22;9051;51.548;14.348;2023-03-23T16:49:42;15.50;99.90
17851;DHT22;9051;51.548;14.348;2023-03-23T18:41:06;14.00;99.90
17851;DHT22;9051;51.548;14.348;2023-03-23T18:43:39;14.00;99.90
17851;DHT22;9051;51.548;14.348;2023-03-23T18:46:19;14.00;99.90
17851;DHT22;9051;51.548;14.348;2023-03-23T18:48:51;14.10;99.90
17851;DHT22;9051;51.548;14.348;2023-03-23T18:51:29;14.10;99.90
17851;DHT22;9051;51.548;14.348;2023-03-23T18:54:01;14.00;99.90
17851;DHT22;9051;51.548;14.348;2023-03-23T18:56:35;14.00;99.90
17851;DHT22;9051;51.548;14.348;2023-03-23T18:59:07;13.90;99.90
17851;DHT22;9051;51.548;14.348;2023-03-23T19:01:43;14.00;99.90
17851;DHT22;9051;51.548;14.348;2023-03-23T19:04:15;14.10;99.90
17851;DHT22;9051;51.548;14.348;2023-03-23T19:06:52;14.10;99.90
17851;DHT22;9051;51.548;14.348;2023-03-23T19:09:24;14.00;99.90
17851;DHT22;9051;51.548;14.348;2023-03-23T19:11:58;13.90;99.90
17851;DHT22;9051;51.548;14.348;2023-03-23T19:14:30;13.90;99.90
17851;DHT22;9051;51.548;14.348;2023-03-23T19:17:02;13.90;99.90
17851;DHT22;9051;51.548;14.348;2023-03-23T19:19:34;13.90;99.90
17851;DHT22;9051;51.548;14.348;2023-03-23T19:22:06;13.90;99.90
17851;DHT22;9051;51.548;14.348;2023-03-23T19:24:38;13.90;99.90
17851;DHT22;9051;51.548;14.348;2023-03-23T19:27:12;13.90;99.90
17851;DHT22;9051;51.548;14.348;2023-03-23T19:29:44;13.80;99.90